sensor_id;sensor_type;location;lat;lon;timestamp;P1;durP1;ratioP1;P2;durP2;ratioP2
18001;SDS011;9126;48.160;17.130;2022-09-09T00:02:04;0.60;;;0.60;;
18001;SDS011;9126;48.160;17.130;2022-09-09T00:04:42;0.70;;;0.60;;
18001;SDS011;9126;48.160;17.130;2022-09-09T00:07:14;1.20;;;0.60;;
18001;SDS011;9126;48.160;17.130;2022-09-09T00:09:47;0.98;;;0.80;;
18001;SDS011;9126;48.160;17.130;2022-09-09T00:12:25;0.77;;;0.65;;
18001;SDS011;9126;48.160;17.130;2022-09-09T00:15:05;1.35;;;0.80;;
18001;SDS011;9126;48.160;17.130;2022-09-09T00:17:40;1.20;;;1.10;;
18001;SDS011;9126;48.160;17.130;2022-09-09T00:20:16;1.83;;;1.05;;
18001;SDS011;9126;48.160;17.130;2022-09-09T00:22:53;0.88;;;0.60;;
18001;SDS011;9126;48.160;17.130;2022-09-09T00:25:28;6.00;;;0.95;;
18001;SDS011;9126;48.160;17.130;2022-09-09T00:28:02;1.30;;;0.95;;
18001;SDS011;9126;48.160;17.130;2022-09-09T00:30:31;1.35;;;0.82;;
18001;SDS011;9126;48.160;17.130;2022-09-09T00:33:03;2.35;;;1.20;;
18001;SDS011;9126;48.160;17.130;2022-09-09T00:35:42;1.20;;;1.00;;
18001;SDS011;9126;48.160;17.130;2022-09-09T00:38:13;1.05;;;0.90;;
18001;SDS011;9126;48.160;17.130;2022-09-09T00:40:45;1.00;;;0.90;;
18001;SDS011;9126;48.160;17.130;2022-09-09T00:43:21;0.82;;;0.73;;
18001;SDS011;9126;48.160;17.130;2022-09-09T00:46:00;1.08;;;1.00;;
18001;SDS011;9126;48.160;17.130;2022-09-09T00:48:44;1.10;;;1.00;;
18001;SDS011;9126;48.160;17.130;2022-09-09T00:51:22;2.00;;;0.90;;
18001;SDS011;9126;48.160;17.130;2022-09-09T00:53:58;1.40;;;0.70;;
18001;SDS011;9126;48.160;17.130;2022-09-09T00:56:40;2.30;;;1.00;;
18001;SDS011;9126;48.160;17.130;2022-09-09T00:59:14;1.95;;;0.93;;
18001;SDS011;9126;48.160;17.130;2022-09-09T01:01:51;1.58;;;1.02;;
18001;SDS011;9126;48.160;17.130;2022-09-09T01:04:21;1.45;;;1.10;;
18001;SDS011;9126;48.160;17.130;2022-09-09T01:06:59;1.77;;;1.20;;
18001;SDS011;9126;48.160;17.130;2022-09-09T01:09:37;1.15;;;1.05;;
18001;SDS011;9126;48.160;17.130;2022-09-09T01:12:15;0.85;;;0.82;;
18001;SDS011;9126;48.160;17.130;2022-09-09T01:14:45;1.23;;;0.80;;
18001;SDS011;9126;48.160;17.130;2022-09-09T01:17:20;2.17;;;1.25;;
18001;SDS011;9126;48.160;17.130;2022-09-09T01:19:59;2.95;;;1.08;;
18001;SDS011;9126;48.160;17.130;2022-09-09T01:22:35;1.15;;;0.90;;
18001;SDS011;9126;48.160;17.130;2022-09-09T01:25:28;1.13;;;0.93;;
18001;SDS011;9126;48.160;17.130;2022-09-09T01:28:25;1.27;;;1.00;;
18001;SDS011;9126;48.160;17.130;2022-09-09T01:30:55;3.08;;;1.00;;
18001;SDS011;9126;48.160;17.130;2022-09-09T01:33:23;3.17;;;1.17;;
18001;SDS011;9126;48.160;17.130;2022-09-09T01:35:52;1.02;;;1.00;;
18001;SDS011;9126;48.160;17.130;2022-09-09T01:38:25;0.98;;;0.90;;
18001;SDS011;9126;48.160;17.130;2022-09-09T01:40:56;2.67;;;1.10;;
18001;SDS011;9126;48.160;17.130;2022-09-09T01:43:25;1.05;;;0.95;;
18001;SDS011;9126;48.160;17.130;2022-09-09T01:45:55;1.25;;;1.15;;
18001;SDS011;9126;48.160;17.130;2022-09-09T01:48:25;2.08;;;0.90;;
18001;SDS011;9126;48.160;17.130;2022-09-09T01:50:53;1.10;;;1.00;;
18001;SDS011;9126;48.160;17.130;2022-09-09T01:53:22;1.08;;;0.98;;
18001;SDS011;9126;48.160;17.130;2022-09-09T01:55:52;4.00;;;1.33;;
18001;SDS011;9126;48.160;17.130;2022-09-09T01:58:31;2.25;;;1.30;;
18001;SDS011;9126;48.160;17.130;2022-09-09T02:01:15;2.55;;;1.20;;
18001;SDS011;9126;48.160;17.130;2022-09-09T02:03:51;2.08;;;0.98;;
18001;SDS011;9126;48.160;17.130;2022-09-09T02:06:24;1.75;;;1.20;;
18001;SDS011;9126;48.160;17.130;2022-09-09T02:08:56;1.42;;;1.30;;
18001;SDS011;9126;48.160;17.130;2022-09-09T02:11:27;1.42;;;1.30;;
18001;SDS011;9126;48.160;17.130;2022-09-09T02:13:56;1.08;;;1.08;;
18001;SDS011;9126;48.160;17.130;2022-09-09T02:16:28;1.17;;;0.90;;
18001;SDS011;9126;48.160;17.130;2022-09-09T02:19:00;2.58;;;1.00;;
18001;SDS011;9126;48.160;17.130;2022-09-09T02:21:30;1.75;;;0.90;;
18001;SDS011;9126;48.160;17.130;2022-09-09T02:24:00;1.85;;;1.30;;
18001;SDS011;9126;48.160;17.130;2022-09-09T02:26:32;3.47;;;1.20;;
18001;SDS011;9126;48.160;17.130;2022-09-09T02:29:02;3.35;;;1.30;;
18001;SDS011;9126;48.160;17.130;2022-09-09T02:31:34;4.40;;;1.60;;
18001;SDS011;9126;48.160;17.130;2022-09-09T02:34:03;2.22;;;1.42;;
18001;SDS011;9126;48.160;17.130;2022-09-09T02:36:34;3.67;;;1.73;;
18001;SDS011;9126;48.160;17.130;2022-09-09T02:39:06;3.97;;;1.58;;
18001;SDS011;9126;48.160;17.130;2022-09-09T02:41:38;2.95;;;1.10;;
18001;SDS011;9126;48.160;17.130;2022-09-09T02:44:08;2.20;;;1.40;;
18001;SDS011;9126;48.160;17.130;2022-09-09T02:46:44;1.10;;;1.10;;
18001;SDS011;9126;48.160;17.130;2022-09-09T02:49:33;3.30;;;1.00;;
18001;SDS011;9126;48.160;17.130;2022-09-09T02:52:07;6.78;;;1.55;;
18001;SDS011;9126;48.160;17.130;2022-09-09T02:54:52;2.40;;;1.38;;
18001;SDS011;9126;48.160;17.130;2022-09-09T03:00:22;2.03;;;1.20;;
18001;SDS011;9126;48.160;17.130;2022-09-09T03:02:53;2.17;;;1.42;;
18001;SDS011;9126;48.160;17.130;2022-09-09T03:05:24;3.28;;;1.67;;
18001;SDS011;9126;48.160;17.130;2022-09-09T03:08:06;1.83;;;1.40;;
18001;SDS011;9126;48.160;17.130;2022-09-09T03:10:33;1.50;;;1.40;;
18001;SDS011;9126;48.160;17.130;2022-09-09T03:13:03;1.65;;;1.55;;
18001;SDS011;9126;48.160;17.130;2022-09-09T03:15:31;2.55;;;1.20;;
18001;SDS011;9126;48.160;17.130;2022-09-09T03:18:04;3.33;;;1.35;;
18001;SDS011;9126;48.160;17.130;2022-09-09T03:20:31;2.03;;;1.40;;
18001;SDS011;9126;48.160;17.130;2022-09-09T03:22:58;3.70;;;1.52;;
18001;SDS011;9126;48.160;17.130;2022-09-09T03:25:27;2.58;;;1.30;;
18001;SDS011;9126;48.160;17.130;2022-09-09T03:27:55;4.22;;;1.77;;
18001;SDS011;9126;48.160;17.130;2022-09-09T03:30:24;1.38;;;1.27;;
18001;SDS011;9126;48.160;17.130;2022-09-09T03:32:53;1.50;;;1.40;;
18001;SDS011;9126;48.160;17.130;2022-09-09T03:35:21;1.67;;;1.50;;
18001;SDS011;9126;48.160;17.130;2022-09-09T03:37:49;1.90;;;1.30;;
18001;SDS011;9126;48.160;17.130;2022-09-09T03:40:21;2.30;;;1.55;;
18001;SDS011;9126;48.160;17.130;2022-09-09T03:42:49;3.35;;;1.42;;
18001;SDS011;9126;48.160;17.130;2022-09-09T03:45:16;1.98;;;1.52;;
18001;SDS011;9126;48.160;17.130;2022-09-09T03:47:46;1.92;;;1.70;;
18001;SDS011;9126;48.160;17.130;2022-09-09T03:50:15;2.85;;;1.80;;
18001;SDS011;9126;48.160;17.130;2022-09-09T03:52:52;3.63;;;1.80;;
18001;SDS011;9126;48.160;17.130;2022-09-09T03:55:29;1.98;;;1.80;;
18001;SDS011;9126;48.160;17.130;2022-09-09T03:57:57;1.70;;;1.42;;
18001;SDS011;9126;48.160;17.130;2022-09-09T04:00:25;3.78;;;1.85;;
18001;SDS011;9126;48.160;17.130;2022-09-09T04:02:56;1.00;;;0.93;;
18001;SDS011;9126;48.160;17.130;2022-09-09T04:05:28;1.52;;;1.20;;
18001;SDS011;9126;48.160;17.130;2022-09-09T04:08:00;2.40;;;1.40;;
18001;SDS011;9126;48.160;17.130;2022-09-09T04:10:29;0.90;;;0.90;;
18001;SDS011;9126;48.160;17.130;2022-09-09T04:12:57;4.00;;;1.65;;
18001;SDS011;9126;48.160;17.130;2022-09-09T04:15:27;1.08;;;1.00;;
18001;SDS011;9126;48.160;17.130;2022-09-09T04:18:00;2.55;;;1.00;;
18001;SDS011;9126;48.160;17.130;2022-09-09T04:20:30;3.45;;;1.33;;
18001;SDS011;9126;48.160;17.130;2022-09-09T04:23:02;1.27;;;1.15;;
18001;SDS011;9126;48.160;17.130;2022-09-09T04:25:43;2.35;;;1.08;;
18001;SDS011;9126;48.160;17.130;2022-09-09T04:28:14;1.30;;;1.20;;
18001;SDS011;9126;48.160;17.130;2022-09-09T04:30:43;2.95;;;1.27;;
18001;SDS011;9126;48.160;17.130;2022-09-09T04:33:17;1.80;;;1.30;;
18001;SDS011;9126;48.160;17.130;2022-09-09T04:35:48;1.20;;;1.00;;
18001;SDS011;9126;48.160;17.130;2022-09-09T04:38:23;5.15;;;1.13;;
18001;SDS011;9126;48.160;17.130;2022-09-09T04:41:11;1.60;;;1.30;;
18001;SDS011;9126;48.160;17.130;2022-09-09T04:43:40;3.58;;;1.40;;
18001;SDS011;9126;48.160;17.130;2022-09-09T04:46:08;3.90;;;1.50;;
18001;SDS011;9126;48.160;17.130;2022-09-09T04:48:39;4.65;;;2.70;;
18001;SDS011;9126;48.160;17.130;2022-09-09T04:51:08;4.35;;;2.10;;
18001;SDS011;9126;48.160;17.130;2022-09-09T04:53:40;3.10;;;1.70;;
18001;SDS011;9126;48.160;17.130;2022-09-09T04:56:11;4.97;;;1.90;;
18001;SDS011;9126;48.160;17.130;2022-09-09T04:58:40;4.53;;;1.70;;
18001;SDS011;9126;48.160;17.130;2022-09-09T05:01:12;4.22;;;1.95;;
18001;SDS011;9126;48.160;17.130;2022-09-09T05:03:46;1.83;;;1.70;;
18001;SDS011;9126;48.160;17.130;2022-09-09T05:06:28;3.33;;;1.77;;
18001;SDS011;9126;48.160;17.130;2022-09-09T05:08:59;2.60;;;1.90;;
18001;SDS011;9126;48.160;17.130;2022-09-09T05:11:43;3.25;;;1.80;;
18001;SDS011;9126;48.160;17.130;2022-09-09T05:17:33;2.47;;;2.08;;
18001;SDS011;9126;48.160;17.130;2022-09-09T05:20:03;4.68;;;1.73;;
18001;SDS011;9126;48.160;17.130;2022-09-09T05:22:32;2.67;;;1.92;;
18001;SDS011;9126;48.160;17.130;2022-09-09T05:25:01;4.13;;;2.25;;
18001;SDS011;9126;48.160;17.130;2022-09-09T05:27:28;5.43;;;1.70;;
18001;SDS011;9126;48.160;17.130;2022-09-09T05:29:56;4.70;;;2.33;;
18001;SDS011;9126;48.160;17.130;2022-09-09T05:32:24;7.07;;;2.40;;
18001;SDS011;9126;48.160;17.130;2022-09-09T05:35:00;5.18;;;2.85;;
18001;SDS011;9126;48.160;17.130;2022-09-09T05:37:36;5.75;;;2.13;;
18001;SDS011;9126;48.160;17.130;2022-09-09T05:40:05;4.68;;;2.03;;
18001;SDS011;9126;48.160;17.130;2022-09-09T05:42:35;4.18;;;1.80;;
18001;SDS011;9126;48.160;17.130;2022-09-09T05:45:15;3.28;;;2.42;;
18001;SDS011;9126;48.160;17.130;2022-09-09T05:47:43;5.18;;;2.67;;
18001;SDS011;9126;48.160;17.130;2022-09-09T05:50:11;6.63;;;2.58;;
18001;SDS011;9126;48.160;17.130;2022-09-09T05:52:42;3.95;;;1.80;;
18001;SDS011;9126;48.160;17.130;2022-09-09T05:55:10;6.05;;;2.13;;
18001;SDS011;9126;48.160;17.130;2022-09-09T05:57:38;5.55;;;1.80;;
18001;SDS011;9126;48.160;17.130;2022-09-09T06:00:08;3.22;;;1.60;;
18001;SDS011;9126;48.160;17.130;2022-09-09T06:02:38;2.78;;;1.63;;
18001;SDS011;9126;48.160;17.130;2022-09-09T06:05:06;2.25;;;1.73;;
18001;SDS011;9126;48.160;17.130;2022-09-09T06:07:38;2.95;;;1.60;;
18001;SDS011;9126;48.160;17.130;2022-09-09T06:10:09;12.98;;;2.40;;
18001;SDS011;9126;48.160;17.130;2022-09-09T06:12:38;4.18;;;1.60;;
18001;SDS011;9126;48.160;17.130;2022-09-09T06:15:06;2.50;;;1.52;;
18001;SDS011;9126;48.160;17.130;2022-09-09T06:17:35;1.45;;;1.10;;
18001;SDS011;9126;48.160;17.130;2022-09-09T06:20:04;1.45;;;1.08;;
18001;SDS011;9126;48.160;17.130;2022-09-09T06:22:34;3.30;;;1.77;;
18001;SDS011;9126;48.160;17.130;2022-09-09T06:25:07;2.47;;;1.67;;
18001;SDS011;9126;48.160;17.130;2022-09-09T06:27:37;4.50;;;1.30;;
18001;SDS011;9126;48.160;17.130;2022-09-09T06:30:06;5.13;;;1.27;;
18001;SDS011;9126;48.160;17.130;2022-09-09T06:32:34;3.53;;;1.55;;
18001;SDS011;9126;48.160;17.130;2022-09-09T06:35:03;4.90;;;1.63;;
18001;SDS011;9126;48.160;17.130;2022-09-09T06:37:33;2.90;;;1.30;;
18001;SDS011;9126;48.160;17.130;2022-09-09T06:40:00;2.00;;;1.45;;
18001;SDS011;9126;48.160;17.130;2022-09-09T06:42:29;2.60;;;1.27;;
18001;SDS011;9126;48.160;17.130;2022-09-09T06:45:01;1.95;;;1.10;;
18001;SDS011;9126;48.160;17.130;2022-09-09T06:47:30;7.25;;;1.40;;
18001;SDS011;9126;48.160;17.130;2022-09-09T06:50:00;4.30;;;1.23;;
18001;SDS011;9126;48.160;17.130;2022-09-09T06:52:27;2.92;;;1.80;;
18001;SDS011;9126;48.160;17.130;2022-09-09T06:54:54;7.32;;;2.00;;
18001;SDS011;9126;48.160;17.130;2022-09-09T06:57:23;5.97;;;1.55;;
18001;SDS011;9126;48.160;17.130;2022-09-09T06:59:52;1.67;;;1.00;;
18001;SDS011;9126;48.160;17.130;2022-09-09T07:02:22;3.97;;;1.40;;
18001;SDS011;9126;48.160;17.130;2022-09-09T07:04:50;4.45;;;1.40;;
18001;SDS011;9126;48.160;17.130;2022-09-09T07:07:17;1.80;;;1.35;;
18001;SDS011;9126;48.160;17.130;2022-09-09T07:09:45;2.08;;;0.75;;
18001;SDS011;9126;48.160;17.130;2022-09-09T07:12:12;1.70;;;0.85;;
18001;SDS011;9126;48.160;17.130;2022-09-09T07:14:39;2.05;;;0.70;;
18001;SDS011;9126;48.160;17.130;2022-09-09T07:17:07;2.72;;;0.75;;
18001;SDS011;9126;48.160;17.130;2022-09-09T07:19:36;1.10;;;0.98;;
18001;SDS011;9126;48.160;17.130;2022-09-09T07:22:03;1.75;;;0.93;;
18001;SDS011;9126;48.160;17.130;2022-09-09T07:24:31;6.18;;;1.00;;
18001;SDS011;9126;48.160;17.130;2022-09-09T07:27:00;3.10;;;0.68;;
18001;SDS011;9126;48.160;17.130;2022-09-09T07:29:28;3.92;;;1.10;;
18001;SDS011;9126;48.160;17.130;2022-09-09T07:31:55;3.83;;;1.50;;
18001;SDS011;9126;48.160;17.130;2022-09-09T07:34:24;2.63;;;0.70;;
18001;SDS011;9126;48.160;17.130;2022-09-09T07:36:51;1.90;;;0.80;;
18001;SDS011;9126;48.160;17.130;2022-09-09T07:39:18;2.42;;;0.65;;
18001;SDS011;9126;48.160;17.130;2022-09-09T07:41:46;1.55;;;0.70;;
18001;SDS011;9126;48.160;17.130;2022-09-09T07:44:15;2.30;;;0.80;;
18001;SDS011;9126;48.160;17.130;2022-09-09T07:46:44;4.68;;;1.30;;
18001;SDS011;9126;48.160;17.130;2022-09-09T07:49:11;3.08;;;0.90;;
18001;SDS011;9126;48.160;17.130;2022-09-09T07:51:40;2.63;;;0.93;;
18001;SDS011;9126;48.160;17.130;2022-09-09T07:54:10;3.03;;;1.02;;
18001;SDS011;9126;48.160;17.130;2022-09-09T07:56:39;1.42;;;1.33;;
18001;SDS011;9126;48.160;17.130;2022-09-09T07:59:07;4.35;;;1.05;;
18001;SDS011;9126;48.160;17.130;2022-09-09T08:01:35;1.83;;;0.82;;
18001;SDS011;9126;48.160;17.130;2022-09-09T08:04:05;1.27;;;0.70;;
18001;SDS011;9126;48.160;17.130;2022-09-09T08:06:35;4.60;;;0.80;;
18001;SDS011;9126;48.160;17.130;2022-09-09T08:09:05;1.40;;;0.98;;
18001;SDS011;9126;48.160;17.130;2022-09-09T08:11:35;3.85;;;0.95;;
18001;SDS011;9126;48.160;17.130;2022-09-09T08:14:03;3.47;;;1.02;;
18001;SDS011;9126;48.160;17.130;2022-09-09T08:16:33;2.65;;;0.85;;
18001;SDS011;9126;48.160;17.130;2022-09-09T08:19:02;4.20;;;1.13;;
18001;SDS011;9126;48.160;17.130;2022-09-09T08:21:32;6.50;;;1.17;;
18001;SDS011;9126;48.160;17.130;2022-09-09T08:24:08;4.57;;;2.03;;
18001;SDS011;9126;48.160;17.130;2022-09-09T08:26:37;4.22;;;1.58;;
18001;SDS011;9126;48.160;17.130;2022-09-09T08:29:07;2.78;;;0.50;;
18001;SDS011;9126;48.160;17.130;2022-09-09T08:31:35;1.48;;;0.60;;
18001;SDS011;9126;48.160;17.130;2022-09-09T08:34:07;2.08;;;0.77;;
18001;SDS011;9126;48.160;17.130;2022-09-09T08:36:36;8.02;;;1.17;;
18001;SDS011;9126;48.160;17.130;2022-09-09T08:39:09;1.02;;;0.60;;
18001;SDS011;9126;48.160;17.130;2022-09-09T08:41:48;1.02;;;0.77;;
18001;SDS011;9126;48.160;17.130;2022-09-09T08:44:38;1.85;;;0.93;;
18001;SDS011;9126;48.160;17.130;2022-09-09T08:47:19;1.20;;;0.65;;
18001;SDS011;9126;48.160;17.130;2022-09-09T08:50:00;1.30;;;0.75;;
18001;SDS011;9126;48.160;17.130;2022-09-09T08:52:36;2.03;;;0.90;;
18001;SDS011;9126;48.160;17.130;2022-09-09T08:55:15;0.70;;;0.57;;
18001;SDS011;9126;48.160;17.130;2022-09-09T08:57:52;1.40;;;0.85;;
18001;SDS011;9126;48.160;17.130;2022-09-09T09:00:22;1.90;;;0.85;;
18001;SDS011;9126;48.160;17.130;2022-09-09T09:02:55;3.45;;;0.80;;
18001;SDS011;9126;48.160;17.130;2022-09-09T09:05:31;2.20;;;0.77;;
18001;SDS011;9126;48.160;17.130;2022-09-09T09:08:07;0.93;;;0.60;;
18001;SDS011;9126;48.160;17.130;2022-09-09T09:10:47;2.45;;;0.70;;
18001;SDS011;9126;48.160;17.130;2022-09-09T09:13:17;3.75;;;0.68;;
18001;SDS011;9126;48.160;17.130;2022-09-09T09:15:49;1.55;;;1.20;;
18001;SDS011;9126;48.160;17.130;2022-09-09T09:18:23;6.30;;;1.10;;
18001;SDS011;9126;48.160;17.130;2022-09-09T09:20:53;3.80;;;0.70;;
18001;SDS011;9126;48.160;17.130;2022-09-09T09:23:33;3.70;;;0.98;;
18001;SDS011;9126;48.160;17.130;2022-09-09T09:26:12;3.78;;;0.80;;
18001;SDS011;9126;48.160;17.130;2022-09-09T09:28:39;2.13;;;1.17;;
18001;SDS011;9126;48.160;17.130;2022-09-09T09:31:09;1.30;;;0.85;;
18001;SDS011;9126;48.160;17.130;2022-09-09T09:33:40;3.40;;;1.02;;
18001;SDS011;9126;48.160;17.130;2022-09-09T09:36:16;1.27;;;0.90;;
18001;SDS011;9126;48.160;17.130;2022-09-09T09:38:54;2.40;;;0.98;;
18001;SDS011;9126;48.160;17.130;2022-09-09T09:41:30;1.85;;;1.08;;
18001;SDS011;9126;48.160;17.130;2022-09-09T09:44:01;3.60;;;1.23;;
18001;SDS011;9126;48.160;17.130;2022-09-09T09:46:30;2.83;;;0.80;;
18001;SDS011;9126;48.160;17.130;2022-09-09T09:48:58;4.18;;;0.90;;
18001;SDS011;9126;48.160;17.130;2022-09-09T09:51:26;1.70;;;0.80;;
18001;SDS011;9126;48.160;17.130;2022-09-09T09:54:00;1.25;;;0.80;;
18001;SDS011;9126;48.160;17.130;2022-09-09T09:56:36;0.60;;;0.60;;
18001;SDS011;9126;48.160;17.130;2022-09-09T09:59:03;2.78;;;0.85;;
18001;SDS011;9126;48.160;17.130;2022-09-09T10:01:31;2.78;;;0.70;;
18001;SDS011;9126;48.160;17.130;2022-09-09T10:04:00;2.38;;;0.52;;
18001;SDS011;9126;48.160;17.130;2022-09-09T10:06:29;1.13;;;0.50;;
18001;SDS011;9126;48.160;17.130;2022-09-09T10:08:58;1.83;;;0.75;;
18001;SDS011;9126;48.160;17.130;2022-09-09T10:11:30;2.50;;;0.90;;
18001;SDS011;9126;48.160;17.130;2022-09-09T10:14:12;3.58;;;1.20;;
18001;SDS011;9126;48.160;17.130;2022-09-09T10:16:50;2.08;;;0.45;;
18001;SDS011;9126;48.160;17.130;2022-09-09T10:19:29;1.85;;;0.77;;
18001;SDS011;9126;48.160;17.130;2022-09-09T10:22:06;2.40;;;0.70;;
18001;SDS011;9126;48.160;17.130;2022-09-09T10:27:50;6.20;;;1.20;;
18001;SDS011;9126;48.160;17.130;2022-09-09T10:30:32;1.70;;;0.60;;
18001;SDS011;9126;48.160;17.130;2022-09-09T10:33:09;1.33;;;0.60;;
18001;SDS011;9126;48.160;17.130;2022-09-09T10:35:39;3.75;;;0.90;;
18001;SDS011;9126;48.160;17.130;2022-09-09T10:38:15;1.58;;;0.85;;
18001;SDS011;9126;48.160;17.130;2022-09-09T10:40:46;18.48;;;2.35;;
18001;SDS011;9126;48.160;17.130;2022-09-09T10:43:37;10.00;;;1.67;;
18001;SDS011;9126;48.160;17.130;2022-09-09T10:46:20;2.20;;;0.90;;
18001;SDS011;9126;48.160;17.130;2022-09-09T10:49:01;3.63;;;0.90;;
18001;SDS011;9126;48.160;17.130;2022-09-09T10:51:39;4.13;;;0.93;;
18001;SDS011;9126;48.160;17.130;2022-09-09T10:54:22;1.23;;;0.70;;
18001;SDS011;9126;48.160;17.130;2022-09-09T10:56:58;7.28;;;1.40;;
18001;SDS011;9126;48.160;17.130;2022-09-09T10:59:32;6.38;;;1.17;;
18001;SDS011;9126;48.160;17.130;2022-09-09T11:02:05;1.90;;;0.73;;
18001;SDS011;9126;48.160;17.130;2022-09-09T11:04:45;5.80;;;1.25;;
18001;SDS011;9126;48.160;17.130;2022-09-09T11:07:21;4.35;;;0.98;;
18001;SDS011;9126;48.160;17.130;2022-09-09T11:09:55;5.25;;;1.63;;
18001;SDS011;9126;48.160;17.130;2022-09-09T11:12:27;3.60;;;1.05;;
18001;SDS011;9126;48.160;17.130;2022-09-09T11:14:59;2.83;;;1.05;;
18001;SDS011;9126;48.160;17.130;2022-09-09T11:17:33;5.43;;;1.00;;
18001;SDS011;9126;48.160;17.130;2022-09-09T11:20:06;26.65;;;3.05;;
18001;SDS011;9126;48.160;17.130;2022-09-09T11:22:43;9.52;;;1.60;;
18001;SDS011;9126;48.160;17.130;2022-09-09T11:25:14;3.17;;;0.90;;
18001;SDS011;9126;48.160;17.130;2022-09-09T11:27:47;1.52;;;0.45;;
18001;SDS011;9126;48.160;17.130;2022-09-09T11:30:38;4.43;;;1.13;;
18001;SDS011;9126;48.160;17.130;2022-09-09T11:33:25;3.47;;;0.93;;
18001;SDS011;9126;48.160;17.130;2022-09-09T11:39:28;1.13;;;0.60;;
18001;SDS011;9126;48.160;17.130;2022-09-09T11:42:16;8.68;;;1.77;;
18001;SDS011;9126;48.160;17.130;2022-09-09T11:44:46;4.20;;;0.70;;
18001;SDS011;9126;48.160;17.130;2022-09-09T11:47:19;2.35;;;0.85;;
18001;SDS011;9126;48.160;17.130;2022-09-09T11:49:54;1.38;;;0.65;;
18001;SDS011;9126;48.160;17.130;2022-09-09T11:52:22;3.22;;;0.85;;
18001;SDS011;9126;48.160;17.130;2022-09-09T11:54:52;1.80;;;0.68;;
18001;SDS011;9126;48.160;17.130;2022-09-09T11:57:56;4.18;;;1.42;;
18001;SDS011;9126;48.160;17.130;2022-09-09T12:00:29;3.03;;;0.60;;
18001;SDS011;9126;48.160;17.130;2022-09-09T12:03:00;1.98;;;0.50;;
18001;SDS011;9126;48.160;17.130;2022-09-09T12:05:35;1.15;;;0.70;;
18001;SDS011;9126;48.160;17.130;2022-09-09T12:08:05;3.85;;;0.60;;
18001;SDS011;9126;48.160;17.130;2022-09-09T12:10:36;0.80;;;0.60;;
18001;SDS011;9126;48.160;17.130;2022-09-09T12:13:15;0.73;;;0.47;;
18001;SDS011;9126;48.160;17.130;2022-09-09T12:15:46;0.75;;;0.40;;
18001;SDS011;9126;48.160;17.130;2022-09-09T12:18:20;1.52;;;0.60;;
18001;SDS011;9126;48.160;17.130;2022-09-09T12:20:52;3.22;;;0.50;;
18001;SDS011;9126;48.160;17.130;2022-09-09T12:23:29;3.78;;;0.90;;
18001;SDS011;9126;48.160;17.130;2022-09-09T12:26:06;0.80;;;0.60;;
18001;SDS011;9126;48.160;17.130;2022-09-09T12:28:48;1.02;;;0.65;;
18001;SDS011;9126;48.160;17.130;2022-09-09T12:31:23;0.73;;;0.50;;
18001;SDS011;9126;48.160;17.130;2022-09-09T12:33:55;0.40;;;0.40;;
18001;SDS011;9126;48.160;17.130;2022-09-09T12:36:32;0.93;;;0.40;;
18001;SDS011;9126;48.160;17.130;2022-09-09T12:39:10;2.30;;;0.55;;
18001;SDS011;9126;48.160;17.130;2022-09-09T12:41:50;1.00;;;0.60;;
18001;SDS011;9126;48.160;17.130;2022-09-09T12:44:22;1.27;;;0.60;;
18001;SDS011;9126;48.160;17.130;2022-09-09T12:46:50;0.77;;;0.40;;
18001;SDS011;9126;48.160;17.130;2022-09-09T12:49:31;1.30;;;0.60;;
18001;SDS011;9126;48.160;17.130;2022-09-09T12:52:02;3.33;;;0.65;;
18001;SDS011;9126;48.160;17.130;2022-09-09T12:54:32;1.08;;;0.50;;
18001;SDS011;9126;48.160;17.130;2022-09-09T12:57:02;1.50;;;0.70;;
18001;SDS011;9126;48.160;17.130;2022-09-09T12:59:34;1.27;;;0.55;;
18001;SDS011;9126;48.160;17.130;2022-09-09T13:02:11;0.45;;;0.45;;
18001;SDS011;9126;48.160;17.130;2022-09-09T13:04:45;2.58;;;0.70;;
18001;SDS011;9126;48.160;17.130;2022-09-09T13:07:17;0.68;;;0.50;;
18001;SDS011;9126;48.160;17.130;2022-09-09T13:09:45;1.02;;;0.75;;
18001;SDS011;9126;48.160;17.130;2022-09-09T13:12:14;0.50;;;0.45;;
18001;SDS011;9126;48.160;17.130;2022-09-09T13:14:45;0.98;;;0.40;;
18001;SDS011;9126;48.160;17.130;2022-09-09T13:17:18;1.23;;;0.57;;
18001;SDS011;9126;48.160;17.130;2022-09-09T13:19:49;1.27;;;0.50;;
18001;SDS011;9126;48.160;17.130;2022-09-09T13:22:21;2.05;;;0.60;;
18001;SDS011;9126;48.160;17.130;2022-09-09T13:24:59;16.70;;;2.72;;
18001;SDS011;9126;48.160;17.130;2022-09-09T13:27:31;9.18;;;1.58;;
18001;SDS011;9126;48.160;17.130;2022-09-09T13:30:00;2.50;;;0.50;;
18001;SDS011;9126;48.160;17.130;2022-09-09T13:32:27;0.90;;;0.40;;
18001;SDS011;9126;48.160;17.130;2022-09-09T13:34:58;0.93;;;0.77;;
18001;SDS011;9126;48.160;17.130;2022-09-09T13:37:28;1.27;;;0.80;;
18001;SDS011;9126;48.160;17.130;2022-09-09T13:40:00;1.52;;;0.82;;
18001;SDS011;9126;48.160;17.130;2022-09-09T13:42:28;2.50;;;0.70;;
18001;SDS011;9126;48.160;17.130;2022-09-09T13:44:58;1.13;;;0.45;;
18001;SDS011;9126;48.160;17.130;2022-09-09T13:47:30;2.42;;;0.70;;
18001;SDS011;9126;48.160;17.130;2022-09-09T13:50:15;2.47;;;0.65;;
18001;SDS011;9126;48.160;17.130;2022-09-09T13:52:46;3.33;;;0.90;;
18001;SDS011;9126;48.160;17.130;2022-09-09T13:55:14;3.33;;;2.33;;
18001;SDS011;9126;48.160;17.130;2022-09-09T13:57:49;1.58;;;0.90;;
18001;SDS011;9126;48.160;17.130;2022-09-09T14:00:17;1.58;;;0.70;;
18001;SDS011;9126;48.160;17.130;2022-09-09T14:02:44;3.72;;;0.50;;
18001;SDS011;9126;48.160;17.130;2022-09-09T14:05:13;1.48;;;0.80;;
18001;SDS011;9126;48.160;17.130;2022-09-09T14:07:40;3.63;;;0.52;;
18001;SDS011;9126;48.160;17.130;2022-09-09T14:10:08;1.75;;;1.23;;
18001;SDS011;9126;48.160;17.130;2022-09-09T14:12:35;1.67;;;0.57;;
18001;SDS011;9126;48.160;17.130;2022-09-09T14:15:03;0.90;;;0.60;;
18001;SDS011;9126;48.160;17.130;2022-09-09T14:17:31;0.73;;;0.57;;
18001;SDS011;9126;48.160;17.130;2022-09-09T14:19:58;1.83;;;0.60;;
18001;SDS011;9126;48.160;17.130;2022-09-09T14:22:28;1.25;;;0.50;;
18001;SDS011;9126;48.160;17.130;2022-09-09T14:24:55;0.85;;;0.70;;
18001;SDS011;9126;48.160;17.130;2022-09-09T14:27:23;1.73;;;0.70;;
18001;SDS011;9126;48.160;17.130;2022-09-09T14:29:51;3.97;;;1.05;;
18001;SDS011;9126;48.160;17.130;2022-09-09T14:32:18;1.50;;;0.90;;
18001;SDS011;9126;48.160;17.130;2022-09-09T14:34:45;0.77;;;0.55;;
18001;SDS011;9126;48.160;17.130;2022-09-09T14:37:14;1.42;;;1.00;;
18001;SDS011;9126;48.160;17.130;2022-09-09T14:39:43;1.85;;;0.63;;
18001;SDS011;9126;48.160;17.130;2022-09-09T14:42:12;1.08;;;0.85;;
18001;SDS011;9126;48.160;17.130;2022-09-09T14:44:39;2.20;;;0.77;;
18001;SDS011;9126;48.160;17.130;2022-09-09T14:47:07;4.05;;;1.10;;
18001;SDS011;9126;48.160;17.130;2022-09-09T14:49:34;1.23;;;0.60;;
18001;SDS011;9126;48.160;17.130;2022-09-09T14:52:02;1.45;;;0.80;;
18001;SDS011;9126;48.160;17.130;2022-09-09T14:54:30;1.50;;;1.00;;
18001;SDS011;9126;48.160;17.130;2022-09-09T14:56:59;3.63;;;0.80;;
18001;SDS011;9126;48.160;17.130;2022-09-09T14:59:26;1.33;;;0.60;;
18001;SDS011;9126;48.160;17.130;2022-09-09T15:01:53;1.55;;;0.60;;
18001;SDS011;9126;48.160;17.130;2022-09-09T15:04:20;3.17;;;0.70;;
18001;SDS011;9126;48.160;17.130;2022-09-09T15:06:47;1.80;;;0.50;;
18001;SDS011;9126;48.160;17.130;2022-09-09T15:09:15;3.80;;;3.47;;
18001;SDS011;9126;48.160;17.130;2022-09-09T15:11:42;1.63;;;0.80;;
18001;SDS011;9126;48.160;17.130;2022-09-09T15:14:11;3.22;;;0.98;;
18001;SDS011;9126;48.160;17.130;2022-09-09T15:16:41;1.30;;;1.00;;
18001;SDS011;9126;48.160;17.130;2022-09-09T15:19:08;1.55;;;0.75;;
18001;SDS011;9126;48.160;17.130;2022-09-09T15:21:35;2.22;;;0.50;;
18001;SDS011;9126;48.160;17.130;2022-09-09T15:24:04;1.50;;;0.63;;
18001;SDS011;9126;48.160;17.130;2022-09-09T15:26:33;3.35;;;0.77;;
18001;SDS011;9126;48.160;17.130;2022-09-09T15:29:03;1.48;;;0.90;;
18001;SDS011;9126;48.160;17.130;2022-09-09T15:31:32;0.60;;;0.60;;